Monday, August 20, 2018, 8:00 PM EDT
Back to Local

KBGR, Bangor Int'l Airport

Location: Bangor, ME, United States Lat: 44.8
Local Time: 8:00 PM EDT ( 0:00 GMT) Lon: -68.817
Time Zone: US/Eastern Elev: 193 ft

Show me the last for .
Show Coded

Time T Td Feel RH Dir Speed Gust Alt SLP Vis Weather Sky Remarks
2018-08-20 18:53 72 62 76 71 180° 7 - 30.16 30.16 10 BKN050 None
2018-08-20 17:53 72 60 76 66 280° 3 - 30.15 30.14 10 BKN055 None
2018-08-20 16:53 77 55 78 46 20° 6 - 30.16 30.15 10 BKN055 None
2018-08-20 15:53 76 54 78 46 Variable 3 - 30.16 30.15 10 BKN050 None
2018-08-20 14:53 76 55 78 48 110° 5 - 30.16 30.15 10 BKN050 None
2018-08-20 13:53 76 54 78 46 Variable 6 - 30.18 30.17 10 BKN050 6-hr Min Temp (2pm): 61.0°F
6-hr Max Temp (2pm): 78.1°F
2018-08-20 12:53 76 55 78 48 110° 6 - 30.19 30.18 10 BKN045 None
2018-08-20 11:53 75 54 77 47 70° 5 - 30.21 30.19 10 SCT050 None
2018-08-20 10:53 73 60 77 63 Variable 6 - 30.22 30.21 10 SCT025 BKN055 None
2018-08-20 09:53 69 60 - 73 80° 3 - 30.23 30.22 10 FEW030 BKN055 None
2018-08-20 08:53 65 60 - 84 360° 6 - 30.23 30.22 8 BKN055 None
2018-08-20 07:53 61 58 - 89 10° 6 - 30.23 30.22 10 BKN055 BKN150 6-hr Min Temp (8am): 55.9°F
6-hr Max Temp (8am): 61.0°F
2018-08-20 06:53 59 57 - 93 20° 7 - 30.23 30.22 7 BKN055 BKN150 None
2018-08-20 05:53 58 57 - 96 350° 6 - 30.21 30.20 7 SCT050 BKN150 None
2018-08-20 04:53 58 56 - 93 10° 5 - 30.18 30.17 10 FEW060 SCT150 None
2018-08-20 03:53 58 56 - 93 10° 5 - 30.17 30.16 10 CLR None
2018-08-20 02:53 60 58 - 92 - Calm - 30.17 30.16 10 FEW055 None
2018-08-20 01:53 59 57 - 93 350° 3 - 30.17 30.16 10 BKN060 6-hr Min Temp (2am): 57.0°F
6-hr Max Temp (2am): 68.0°F
2018-08-20 00:53 62 57 - 83 - Calm - 30.17 30.16 10 BKN060 24-hr Min Temp (1am): 53.1°F
24-hr Max Temp (1am): 79.0°F
2018-08-19 23:53 61 58 - 89 - Calm - 30.17 30.16 10 BKN055 None
2018-08-19 22:53 61 57 - 86 60° 3 - 30.16 30.15 10 FEW020 FEW050 SCT200 None
2018-08-19 21:53 62 57 - 83 - Calm - 30.16 30.15 10 FEW050 SCT200 None
2018-08-19 20:53 65 57 - 75 40° 5 - 30.15 30.15 10 FEW050 SCT200 None

Support USWX by starting your Amazon purchase here.